Honaker, Kentucky
Current Conditions -  °F | °C
As of 1:35 AM on Tuesday 21 Oct 2014 (Local Time) from KPBX Reporting Station
Broken Clouds Broken Clouds  
Wind Chill: 53°   Ceiling: 12000
Heat Index: 53°   Visibility: 10mi
Dew Point: 47°   Wind: 0mph
Humidity: 81%   Direction: NA
Pressure: 29.95"   Gusts: NA
Location:  37.5777°N, 82.6966°W
Report Text: KPBX 210535Z AUTO 00000KT 10SM SCT043 BKN120 12/09 A2995 RMK AO2 T01160085
Loading
Personal Weather Stations






























Interactive Weather Map
Tropical Storm Tracking
New forecast layout! Learn more

10-Day Weather Forecast

Advertisements
Track Severe Weather on mobile